Cut Bank, MT

6:52 AM MDT on August 04, 2015 (GMT -0600)
Cut Bank, MT - North-West Side of Town | | Change Station
CLOSE
Current Station
Personal Weather Station
Location: Cut Bank, MT
Elevation: 3757 ft
Nearby Weather Stations

Elev 3757 ft 48.64 °N, 112.33 °W | Updated 11 seconds ago

Mostly Cloudy
Mostly Cloudy
70.7 °F
Feels Like 77 °F
N
1.7
Wind Variable Wind from South
Gusts 2.7 mph

Today
High -- | Low -- °F
--% Chance of Precip.
Yesterday
High -- | Low -- °F
Precip. -- in
6:07 AM 9:02 PM
Waning Gibbous, 78% visible
Pressure 29.75 in
Visibility 7.0 miles
Clouds Mostly Cloudy 11000 ft
Heat Index 77 °F
Dew Point 42 °F
Humidity 36%
Rainfall 0.00 in
Snow Depth Not available.
UV 0 out of 12
Pollen 6.30 out of 12
Air Quality Not available.
Flu Activity Not available.
METAR KCTB 041156Z AUTO 01005KT 7SM BKN110 22/04 A2988 RMK AO2 SLP072 T02170044 10294 20194 51016

More Conditions Fewer Conditions

Pressure 29.75 in
Visibility 7.0 miles
Clouds Mostly Cloudy 11000 ft
Heat Index 77 °F
Dew Point 42 °F
Humidity 36%
Rainfall 0.00 in
Snow Depth Not available.
UV 0 out of 12
Pollen 6.30 out of 12
Air Quality Not available.
Flu Activity Not available.
METAR KCTB 041156Z AUTO 01005KT 7SM BKN110 22/04 A2988 RMK AO2 SLP072 T02170044 10294 20194 51016

More Conditions Fewer Conditions

10-Day Weather Forecast

×

Almanac

Astronomy

Aug. 04, 2015 Rise Set
Actual Time
Civil Twilight
Nautical Twilight
Astronomical Twilight
Moon
Length of Visible Light
Length of Day
Tomorrow will be .
, % of the Moon is Illuminated

Today's Extremes

State Highs State Lows

Community

WunderPhotos

Upload Photos

1,843,913 photos uploaded!

WunderBlogs® & News

Nearby

Air Quality

  Air Quality AQ Index Pollutant
Not available.

Snow Depth

Station Depth Elevation

Earthquake Activity

City Distance Mag. Time & Date
Minimum magnitude displayed is 2.5.

Coastal Water Temperatures

Place Temperature

Stations

Nearby Weather Stations

Station Location Temp. Windchill Dew Point Humidity Wind Precip. Elev Updated Type